sensor_id;sensor_type;location;lat;lon;timestamp;P1;durP1;ratioP1;P2;durP2;ratioP2
53710;SDS011;39605;52.704;6.752;2023-04-10T00:02:17;5.85;;;2.50;;
53710;SDS011;39605;52.704;6.752;2023-04-10T00:04:43;3.00;;;1.98;;
53710;SDS011;39605;52.704;6.752;2023-04-10T00:07:09;2.53;;;1.83;;
53710;SDS011;39605;52.704;6.752;2023-04-10T00:09:35;5.50;;;3.28;;
53710;SDS011;39605;52.704;6.752;2023-04-10T00:12:01;3.92;;;3.03;;
53710;SDS011;39605;52.704;6.752;2023-04-10T00:14:26;2.88;;;2.67;;
53710;SDS011;39605;52.704;6.752;2023-04-10T00:16:52;6.55;;;3.03;;
53710;SDS011;39605;52.704;6.752;2023-04-10T00:19:18;4.82;;;2.47;;
53710;SDS011;39605;52.704;6.752;2023-04-10T00:21:43;7.13;;;2.20;;
53710;SDS011;39605;52.704;6.752;2023-04-10T00:24:09;1.60;;;1.33;;
53710;SDS011;39605;52.704;6.752;2023-04-10T00:26:35;3.35;;;1.95;;
53710;SDS011;39605;52.704;6.752;2023-04-10T00:29:01;2.22;;;2.03;;
53710;SDS011;39605;52.704;6.752;2023-04-10T00:31:27;1.92;;;1.92;;
53710;SDS011;39605;52.704;6.752;2023-04-10T00:33:53;2.72;;;2.50;;
53710;SDS011;39605;52.704;6.752;2023-04-10T00:36:19;1.33;;;1.23;;
53710;SDS011;39605;52.704;6.752;2023-04-10T00:38:45;3.47;;;2.40;;
53710;SDS011;39605;52.704;6.752;2023-04-10T00:41:11;9.57;;;4.18;;
53710;SDS011;39605;52.704;6.752;2023-04-10T00:43:37;10.20;;;5.43;;
53710;SDS011;39605;52.704;6.752;2023-04-10T00:46:03;2.55;;;1.88;;
53710;SDS011;39605;52.704;6.752;2023-04-10T00:48:31;7.38;;;5.38;;
53710;SDS011;39605;52.704;6.752;2023-04-10T00:50:57;7.88;;;4.35;;
53710;SDS011;39605;52.704;6.752;2023-04-10T00:53:24;5.03;;;4.03;;
53710;SDS011;39605;52.704;6.752;2023-04-10T00:55:50;4.68;;;2.08;;
53710;SDS011;39605;52.704;6.752;2023-04-10T00:58:16;1.63;;;1.50;;
53710;SDS011;39605;52.704;6.752;2023-04-10T01:00:42;2.72;;;2.53;;
53710;SDS011;39605;52.704;6.752;2023-04-10T01:03:08;4.55;;;3.08;;
53710;SDS011;39605;52.704;6.752;2023-04-10T01:05:38;11.02;;;3.03;;
53710;SDS011;39605;52.704;6.752;2023-04-10T01:10:40;11.40;;;3.40;;
53710;SDS011;39605;52.704;6.752;2023-04-10T01:13:21;3.95;;;3.63;;
53710;SDS011;39605;52.704;6.752;2023-04-10T01:16:01;3.35;;;2.10;;
53710;SDS011;39605;52.704;6.752;2023-04-10T01:21:35;2.03;;;1.92;;
53710;SDS011;39605;52.704;6.752;2023-04-10T01:29:17;3.15;;;2.33;;
53710;SDS011;39605;52.704;6.752;2023-04-10T01:31:52;5.80;;;3.10;;
53710;SDS011;39605;52.704;6.752;2023-04-10T01:34:25;8.18;;;4.95;;
53710;SDS011;39605;52.704;6.752;2023-04-10T01:37:01;6.57;;;5.07;;
53710;SDS011;39605;52.704;6.752;2023-04-10T01:39:29;2.72;;;2.45;;
53710;SDS011;39605;52.704;6.752;2023-04-10T01:42:00;7.68;;;2.63;;
53710;SDS011;39605;52.704;6.752;2023-04-10T01:44:29;4.85;;;3.05;;
53710;SDS011;39605;52.704;6.752;2023-04-10T01:46:56;5.15;;;4.68;;
53710;SDS011;39605;52.704;6.752;2023-04-10T01:49:24;2.05;;;1.27;;
53710;SDS011;39605;52.704;6.752;2023-04-10T01:51:52;6.60;;;3.13;;
53710;SDS011;39605;52.704;6.752;2023-04-10T01:54:23;3.25;;;2.40;;
53710;SDS011;39605;52.704;6.752;2023-04-10T01:56:52;5.20;;;3.25;;
53710;SDS011;39605;52.704;6.752;2023-04-10T01:59:18;4.18;;;3.88;;
53710;SDS011;39605;52.704;6.752;2023-04-10T02:01:45;5.07;;;3.78;;
53710;SDS011;39605;52.704;6.752;2023-04-10T02:04:11;5.82;;;4.25;;
53710;SDS011;39605;52.704;6.752;2023-04-10T02:06:40;2.88;;;2.45;;
53710;SDS011;39605;52.704;6.752;2023-04-10T02:09:17;4.13;;;3.85;;
53710;SDS011;39605;52.704;6.752;2023-04-10T02:11:54;8.48;;;2.25;;
53710;SDS011;39605;52.704;6.752;2023-04-10T02:14:24;3.20;;;3.00;;
53710;SDS011;39605;52.704;6.752;2023-04-10T02:16:54;6.25;;;4.60;;
53710;SDS011;39605;52.704;6.752;2023-04-10T02:19:21;7.15;;;3.20;;
53710;SDS011;39605;52.704;6.752;2023-04-10T02:21:49;4.78;;;2.60;;
53710;SDS011;39605;52.704;6.752;2023-04-10T02:24:16;7.95;;;3.70;;
53710;SDS011;39605;52.704;6.752;2023-04-10T02:26:46;2.47;;;2.33;;
53710;SDS011;39605;52.704;6.752;2023-04-10T02:29:14;5.35;;;3.67;;
53710;SDS011;39605;52.704;6.752;2023-04-10T02:31:40;7.28;;;3.00;;
53710;SDS011;39605;52.704;6.752;2023-04-10T02:34:06;2.22;;;1.85;;
53710;SDS011;39605;52.704;6.752;2023-04-10T02:36:36;4.07;;;3.72;;
53710;SDS011;39605;52.704;6.752;2023-04-10T02:39:03;6.70;;;1.70;;
53710;SDS011;39605;52.704;6.752;2023-04-10T02:41:29;3.20;;;2.90;;
53710;SDS011;39605;52.704;6.752;2023-04-10T02:43:55;6.63;;;2.60;;
53710;SDS011;39605;52.704;6.752;2023-04-10T02:46:21;4.13;;;1.90;;
53710;SDS011;39605;52.704;6.752;2023-04-10T02:48:47;4.78;;;3.40;;
53710;SDS011;39605;52.704;6.752;2023-04-10T02:51:13;7.38;;;2.65;;
53710;SDS011;39605;52.704;6.752;2023-04-10T02:53:38;2.35;;;1.77;;
53710;SDS011;39605;52.704;6.752;2023-04-10T02:56:04;7.82;;;4.15;;
53710;SDS011;39605;52.704;6.752;2023-04-10T02:58:35;4.88;;;2.67;;
53710;SDS011;39605;52.704;6.752;2023-04-10T03:01:03;2.55;;;1.75;;
53710;SDS011;39605;52.704;6.752;2023-04-10T03:03:30;4.47;;;1.65;;
53710;SDS011;39605;52.704;6.752;2023-04-10T03:05:56;11.70;;;3.15;;
53710;SDS011;39605;52.704;6.752;2023-04-10T03:08:22;4.60;;;3.38;;
53710;SDS011;39605;52.704;6.752;2023-04-10T03:10:48;8.57;;;4.05;;
53710;SDS011;39605;52.704;6.752;2023-04-10T03:13:14;3.60;;;2.60;;
53710;SDS011;39605;52.704;6.752;2023-04-10T03:15:40;19.35;;;3.75;;
53710;SDS011;39605;52.704;6.752;2023-04-10T03:18:06;2.05;;;1.95;;
53710;SDS011;39605;52.704;6.752;2023-04-10T03:20:34;3.35;;;2.38;;
53710;SDS011;39605;52.704;6.752;2023-04-10T03:23:00;2.13;;;1.98;;
53710;SDS011;39605;52.704;6.752;2023-04-10T03:25:27;3.63;;;1.73;;
53710;SDS011;39605;52.704;6.752;2023-04-10T03:27:53;8.63;;;5.25;;
53710;SDS011;39605;52.704;6.752;2023-04-10T03:30:18;2.05;;;1.23;;
53710;SDS011;39605;52.704;6.752;2023-04-10T03:32:44;3.55;;;3.20;;
53710;SDS011;39605;52.704;6.752;2023-04-10T03:35:10;4.18;;;2.53;;
53710;SDS011;39605;52.704;6.752;2023-04-10T03:37:36;4.53;;;1.45;;
53710;SDS011;39605;52.704;6.752;2023-04-10T03:40:05;3.00;;;1.80;;
53710;SDS011;39605;52.704;6.752;2023-04-10T03:42:32;2.92;;;2.65;;
53710;SDS011;39605;52.704;6.752;2023-04-10T03:44:58;3.75;;;3.22;;
53710;SDS011;39605;52.704;6.752;2023-04-10T03:47:26;9.85;;;5.40;;
53710;SDS011;39605;52.704;6.752;2023-04-10T03:49:52;11.40;;;2.33;;
53710;SDS011;39605;52.704;6.752;2023-04-10T03:52:18;8.88;;;2.28;;
53710;SDS011;39605;52.704;6.752;2023-04-10T03:54:44;2.72;;;2.05;;
53710;SDS011;39605;52.704;6.752;2023-04-10T03:57:10;7.05;;;2.65;;
53710;SDS011;39605;52.704;6.752;2023-04-10T03:59:35;9.27;;;4.35;;
53710;SDS011;39605;52.704;6.752;2023-04-10T04:02:01;3.28;;;2.88;;
53710;SDS011;39605;52.704;6.752;2023-04-10T04:04:27;8.20;;;3.80;;
53710;SDS011;39605;52.704;6.752;2023-04-10T04:06:55;6.60;;;2.92;;
53710;SDS011;39605;52.704;6.752;2023-04-10T04:09:20;11.02;;;3.92;;
53710;SDS011;39605;52.704;6.752;2023-04-10T04:11:46;6.03;;;3.95;;
53710;SDS011;39605;52.704;6.752;2023-04-10T04:14:12;5.72;;;2.17;;
53710;SDS011;39605;52.704;6.752;2023-04-10T04:16:37;6.90;;;2.70;;
53710;SDS011;39605;52.704;6.752;2023-04-10T04:19:03;2.88;;;2.15;;
53710;SDS011;39605;52.704;6.752;2023-04-10T04:21:29;2.78;;;2.00;;
53710;SDS011;39605;52.704;6.752;2023-04-10T04:23:55;6.00;;;2.35;;
53710;SDS011;39605;52.704;6.752;2023-04-10T04:26:21;6.95;;;2.25;;
53710;SDS011;39605;52.704;6.752;2023-04-10T04:28:49;3.95;;;2.08;;
53710;SDS011;39605;52.704;6.752;2023-04-10T04:31:14;2.67;;;1.58;;
53710;SDS011;39605;52.704;6.752;2023-04-10T04:33:40;2.25;;;1.83;;
53710;SDS011;39605;52.704;6.752;2023-04-10T04:36:06;0.90;;;0.85;;
53710;SDS011;39605;52.704;6.752;2023-04-10T04:38:32;1.48;;;1.05;;
53710;SDS011;39605;52.704;6.752;2023-04-10T04:40:58;6.30;;;2.70;;
53710;SDS011;39605;52.704;6.752;2023-04-10T04:43:23;10.82;;;2.50;;
53710;SDS011;39605;52.704;6.752;2023-04-10T04:45:49;2.00;;;1.90;;
53710;SDS011;39605;52.704;6.752;2023-04-10T04:48:15;1.85;;;1.33;;
53710;SDS011;39605;52.704;6.752;2023-04-10T04:50:40;3.97;;;1.83;;
53710;SDS011;39605;52.704;6.752;2023-04-10T04:53:07;2.95;;;2.38;;
53710;SDS011;39605;52.704;6.752;2023-04-10T04:55:33;4.20;;;2.42;;
53710;SDS011;39605;52.704;6.752;2023-04-10T04:57:59;3.22;;;2.05;;
53710;SDS011;39605;52.704;6.752;2023-04-10T05:00:25;7.18;;;3.10;;
53710;SDS011;39605;52.704;6.752;2023-04-10T05:02:50;2.55;;;2.35;;
53710;SDS011;39605;52.704;6.752;2023-04-10T05:05:16;4.10;;;1.90;;
53710;SDS011;39605;52.704;6.752;2023-04-10T05:07:42;2.88;;;1.50;;
53710;SDS011;39605;52.704;6.752;2023-04-10T05:10:07;3.65;;;1.58;;
53710;SDS011;39605;52.704;6.752;2023-04-10T05:12:33;2.90;;;2.65;;
53710;SDS011;39605;52.704;6.752;2023-04-10T05:14:59;3.80;;;2.45;;
53710;SDS011;39605;52.704;6.752;2023-04-10T05:17:25;3.58;;;1.63;;
53710;SDS011;39605;52.704;6.752;2023-04-10T05:19:50;2.33;;;1.63;;
53710;SDS011;39605;52.704;6.752;2023-04-10T05:22:16;2.67;;;2.45;;
53710;SDS011;39605;52.704;6.752;2023-04-10T05:24:42;3.03;;;1.55;;
53710;SDS011;39605;52.704;6.752;2023-04-10T05:27:07;1.42;;;1.33;;
53710;SDS011;39605;52.704;6.752;2023-04-10T05:29:33;10.65;;;1.77;;
53710;SDS011;39605;52.704;6.752;2023-04-10T05:31:59;3.03;;;2.78;;
53710;SDS011;39605;52.704;6.752;2023-04-10T05:34:25;3.78;;;2.13;;
53710;SDS011;39605;52.704;6.752;2023-04-10T05:36:51;4.70;;;2.05;;
53710;SDS011;39605;52.704;6.752;2023-04-10T05:39:19;2.60;;;2.40;;
53710;SDS011;39605;52.704;6.752;2023-04-10T05:41:45;7.38;;;3.45;;
53710;SDS011;39605;52.704;6.752;2023-04-10T05:44:10;3.35;;;3.13;;
53710;SDS011;39605;52.704;6.752;2023-04-10T05:46:36;3.17;;;2.22;;
53710;SDS011;39605;52.704;6.752;2023-04-10T05:49:02;5.13;;;3.33;;
53710;SDS011;39605;52.704;6.752;2023-04-10T05:51:27;2.85;;;2.45;;
53710;SDS011;39605;52.704;6.752;2023-04-10T05:53:53;4.95;;;3.53;;
53710;SDS011;39605;52.704;6.752;2023-04-10T05:56:19;2.70;;;1.85;;
53710;SDS011;39605;52.704;6.752;2023-04-10T05:58:45;2.05;;;1.85;;
53710;SDS011;39605;52.704;6.752;2023-04-10T06:01:10;3.10;;;1.42;;
53710;SDS011;39605;52.704;6.752;2023-04-10T06:03:37;1.55;;;1.45;;
53710;SDS011;39605;52.704;6.752;2023-04-10T06:06:03;6.75;;;2.90;;
53710;SDS011;39605;52.704;6.752;2023-04-10T06:08:30;2.28;;;2.08;;
53710;SDS011;39605;52.704;6.752;2023-04-10T06:10:56;10.98;;;3.47;;
53710;SDS011;39605;52.704;6.752;2023-04-10T06:13:22;8.55;;;3.20;;
53710;SDS011;39605;52.704;6.752;2023-04-10T06:15:48;3.58;;;3.38;;
53710;SDS011;39605;52.704;6.752;2023-04-10T06:18:14;4.25;;;3.35;;
53710;SDS011;39605;52.704;6.752;2023-04-10T06:20:40;4.45;;;3.05;;
53710;SDS011;39605;52.704;6.752;2023-04-10T06:23:05;5.75;;;1.98;;
53710;SDS011;39605;52.704;6.752;2023-04-10T06:25:31;3.80;;;1.75;;
53710;SDS011;39605;52.704;6.752;2023-04-10T06:27:57;3.58;;;2.42;;
53710;SDS011;39605;52.704;6.752;2023-04-10T06:30:22;6.68;;;2.20;;
53710;SDS011;39605;52.704;6.752;2023-04-10T06:32:48;1.55;;;1.45;;
53710;SDS011;39605;52.704;6.752;2023-04-10T06:35:14;1.48;;;1.42;;
53710;SDS011;39605;52.704;6.752;2023-04-10T06:37:40;2.42;;;2.22;;
53710;SDS011;39605;52.704;6.752;2023-04-10T06:40:07;9.57;;;2.17;;
53710;SDS011;39605;52.704;6.752;2023-04-10T06:42:34;2.78;;;2.58;;
53710;SDS011;39605;52.704;6.752;2023-04-10T06:45:01;8.88;;;2.63;;
53710;SDS011;39605;52.704;6.752;2023-04-10T06:47:28;2.72;;;2.20;;
53710;SDS011;39605;52.704;6.752;2023-04-10T06:49:53;6.70;;;4.35;;
53710;SDS011;39605;52.704;6.752;2023-04-10T06:52:19;2.42;;;1.58;;
53710;SDS011;39605;52.704;6.752;2023-04-10T06:54:45;3.47;;;2.70;;
53710;SDS011;39605;52.704;6.752;2023-04-10T06:57:11;3.25;;;1.33;;
53710;SDS011;39605;52.704;6.752;2023-04-10T06:59:37;3.42;;;1.27;;
53710;SDS011;39605;52.704;6.752;2023-04-10T07:02:02;1.77;;;1.67;;
53710;SDS011;39605;52.704;6.752;2023-04-10T07:04:28;9.02;;;4.43;;
53710;SDS011;39605;52.704;6.752;2023-04-10T07:06:55;2.38;;;1.73;;
53710;SDS011;39605;52.704;6.752;2023-04-10T07:09:21;2.28;;;2.08;;
53710;SDS011;39605;52.704;6.752;2023-04-10T07:11:46;2.65;;;2.30;;
53710;SDS011;39605;52.704;6.752;2023-04-10T07:14:13;0.88;;;0.85;;
53710;SDS011;39605;52.704;6.752;2023-04-10T07:16:38;17.95;;;2.78;;
53710;SDS011;39605;52.704;6.752;2023-04-10T07:19:04;6.68;;;1.58;;
53710;SDS011;39605;52.704;6.752;2023-04-10T07:21:30;1.15;;;1.05;;
53710;SDS011;39605;52.704;6.752;2023-04-10T07:23:57;2.45;;;1.35;;
53710;SDS011;39605;52.704;6.752;2023-04-10T07:26:22;2.55;;;1.30;;
53710;SDS011;39605;52.704;6.752;2023-04-10T07:28:49;5.47;;;1.58;;
53710;SDS011;39605;52.704;6.752;2023-04-10T07:31:15;1.92;;;1.77;;
53710;SDS011;39605;52.704;6.752;2023-04-10T07:33:42;1.48;;;1.38;;
53710;SDS011;39605;52.704;6.752;2023-04-10T07:36:09;1.58;;;1.48;;
53710;SDS011;39605;52.704;6.752;2023-04-10T07:38:34;3.25;;;1.95;;
53710;SDS011;39605;52.704;6.752;2023-04-10T07:41:00;2.17;;;1.58;;
53710;SDS011;39605;52.704;6.752;2023-04-10T07:43:26;9.00;;;2.95;;
53710;SDS011;39605;52.704;6.752;2023-04-10T07:45:51;2.70;;;1.75;;
53710;SDS011;39605;52.704;6.752;2023-04-10T07:48:18;2.33;;;1.92;;
53710;SDS011;39605;52.704;6.752;2023-04-10T07:50:44;1.75;;;1.63;;
53710;SDS011;39605;52.704;6.752;2023-04-10T07:53:10;5.13;;;1.65;;
53710;SDS011;39605;52.704;6.752;2023-04-10T07:55:39;7.50;;;2.33;;
53710;SDS011;39605;52.704;6.752;2023-04-10T07:58:06;1.65;;;1.38;;
53710;SDS011;39605;52.704;6.752;2023-04-10T08:00:32;4.05;;;2.35;;
53710;SDS011;39605;52.704;6.752;2023-04-10T08:02:58;2.05;;;1.63;;
53710;SDS011;39605;52.704;6.752;2023-04-10T08:05:23;2.55;;;1.80;;
53710;SDS011;39605;52.704;6.752;2023-04-10T08:07:49;0.63;;;0.35;;
53710;SDS011;39605;52.704;6.752;2023-04-10T08:10:15;3.22;;;1.67;;
53710;SDS011;39605;52.704;6.752;2023-04-10T08:12:41;7.00;;;2.33;;
53710;SDS011;39605;52.704;6.752;2023-04-10T08:15:06;2.65;;;0.98;;
53710;SDS011;39605;52.704;6.752;2023-04-10T08:17:32;1.35;;;1.25;;
53710;SDS011;39605;52.704;6.752;2023-04-10T08:19:58;2.03;;;0.93;;
53710;SDS011;39605;52.704;6.752;2023-04-10T08:22:23;1.25;;;1.00;;
53710;SDS011;39605;52.704;6.752;2023-04-10T08:24:49;1.30;;;0.25;;
53710;SDS011;39605;52.704;6.752;2023-04-10T08:27:15;1.58;;;0.82;;
53710;SDS011;39605;52.704;6.752;2023-04-10T08:29:41;1.63;;;1.08;;
53710;SDS011;39605;52.704;6.752;2023-04-10T08:32:07;1.05;;;0.45;;
53710;SDS011;39605;52.704;6.752;2023-04-10T08:34:33;3.25;;;1.15;;
53710;SDS011;39605;52.704;6.752;2023-04-10T08:36:58;1.10;;;0.75;;
53710;SDS011;39605;52.704;6.752;2023-04-10T08:39:24;1.25;;;0.95;;
53710;SDS011;39605;52.704;6.752;2023-04-10T08:41:50;0.40;;;0.40;;
53710;SDS011;39605;52.704;6.752;2023-04-10T08:44:16;3.88;;;1.25;;
53710;SDS011;39605;52.704;6.752;2023-04-10T08:46:42;1.48;;;1.08;;
53710;SDS011;39605;52.704;6.752;2023-04-10T08:49:10;1.30;;;1.20;;
53710;SDS011;39605;52.704;6.752;2023-04-10T08:51:45;1.35;;;1.25;;
53710;SDS011;39605;52.704;6.752;2023-04-10T08:54:26;1.35;;;0.38;;
53710;SDS011;39605;52.704;6.752;2023-04-10T08:56:54;0.63;;;0.63;;
53710;SDS011;39605;52.704;6.752;2023-04-10T08:59:21;2.47;;;1.40;;
53710;SDS011;39605;52.704;6.752;2023-04-10T09:01:46;0.60;;;0.30;;
53710;SDS011;39605;52.704;6.752;2023-04-10T09:04:12;4.47;;;2.38;;
53710;SDS011;39605;52.704;6.752;2023-04-10T09:06:39;2.20;;;1.55;;
53710;SDS011;39605;52.704;6.752;2023-04-10T09:09:05;0.93;;;0.40;;
53710;SDS011;39605;52.704;6.752;2023-04-10T09:16:55;5.13;;;1.10;;
53710;SDS011;39605;52.704;6.752;2023-04-10T09:19:37;2.15;;;1.20;;
53710;SDS011;39605;52.704;6.752;2023-04-10T09:22:03;3.60;;;1.13;;
53710;SDS011;39605;52.704;6.752;2023-04-10T09:24:28;0.47;;;0.47;;
53710;SDS011;39605;52.704;6.752;2023-04-10T09:26:54;1.95;;;1.23;;
53710;SDS011;39605;52.704;6.752;2023-04-10T09:29:20;0.10;;;0.10;;
53710;SDS011;39605;52.704;6.752;2023-04-10T09:31:46;0.38;;;0.38;;
53710;SDS011;39605;52.704;6.752;2023-04-10T09:34:13;0.15;;;0.15;;
53710;SDS011;39605;52.704;6.752;2023-04-10T09:36:41;0.60;;;0.60;;
53710;SDS011;39605;52.704;6.752;2023-04-10T09:39:18;0.95;;;0.68;;
53710;SDS011;39605;52.704;6.752;2023-04-10T09:41:51;0.60;;;0.60;;
53710;SDS011;39605;52.704;6.752;2023-04-10T09:44:40;0.43;;;0.43;;
53710;SDS011;39605;52.704;6.752;2023-04-10T09:47:18;0.40;;;0.40;;
53710;SDS011;39605;52.704;6.752;2023-04-10T09:49:46;5.45;;;0.95;;
53710;SDS011;39605;52.704;6.752;2023-04-10T09:52:16;1.45;;;1.35;;
53710;SDS011;39605;52.704;6.752;2023-04-10T09:54:43;0.20;;;0.20;;
53710;SDS011;39605;52.704;6.752;2023-04-10T09:57:10;0.63;;;0.25;;
53710;SDS011;39605;52.704;6.752;2023-04-10T09:59:39;2.25;;;0.65;;
53710;SDS011;39605;52.704;6.752;2023-04-10T10:02:09;1.20;;;0.50;;
53710;SDS011;39605;52.704;6.752;2023-04-10T10:04:37;2.53;;;0.88;;
53710;SDS011;39605;52.704;6.752;2023-04-10T10:07:06;1.17;;;0.77;;
53710;SDS011;39605;52.704;6.752;2023-04-10T10:09:32;0.30;;;0.30;;
53710;SDS011;39605;52.704;6.752;2023-04-10T10:11:59;0.40;;;0.30;;
53710;SDS011;39605;52.704;6.752;2023-04-10T10:14:27;0.98;;;0.98;;
53710;SDS011;39605;52.704;6.752;2023-04-10T10:16:54;0.05;;;0.05;;
53710;SDS011;39605;52.704;6.752;2023-04-10T10:19:25;0.20;;;0.20;;
53710;SDS011;39605;52.704;6.752;2023-04-10T10:21:59;0.25;;;0.10;;
53710;SDS011;39605;52.704;6.752;2023-04-10T10:24:25;0.10;;;0.10;;
53710;SDS011;39605;52.704;6.752;2023-04-10T10:26:56;0.73;;;0.73;;
53710;SDS011;39605;52.704;6.752;2023-04-10T10:29:25;1.45;;;0.65;;
53710;SDS011;39605;52.704;6.752;2023-04-10T10:31:57;0.00;;;0.00;;
53710;SDS011;39605;52.704;6.752;2023-04-10T10:34:26;0.10;;;0.10;;
53710;SDS011;39605;52.704;6.752;2023-04-10T10:36:53;0.98;;;0.32;;
53710;SDS011;39605;52.704;6.752;2023-04-10T10:42:08;0.17;;;0.17;;
53710;SDS011;39605;52.704;6.752;2023-04-10T10:47:23;0.00;;;0.00;;
53710;SDS011;39605;52.704;6.752;2023-04-10T10:49:53;0.00;;;0.00;;
53710;SDS011;39605;52.704;6.752;2023-04-10T10:52:36;0.00;;;0.00;;
53710;SDS011;39605;52.704;6.752;2023-04-10T10:57:53;1.20;;;0.00;;
53710;SDS011;39605;52.704;6.752;2023-04-10T11:00:23;0.55;;;0.28;;
53710;SDS011;39605;52.704;6.752;2023-04-10T11:05:50;0.40;;;0.40;;
53710;SDS011;39605;52.704;6.752;2023-04-10T11:08:39;0.80;;;0.30;;
53710;SDS011;39605;52.704;6.752;2023-04-10T11:11:24;1.50;;;0.35;;
53710;SDS011;39605;52.704;6.752;2023-04-10T11:16:17;0.10;;;0.08;;
53710;SDS011;39605;52.704;6.752;2023-04-10T11:21:13;0.55;;;0.10;;
53710;SDS011;39605;52.704;6.752;2023-04-10T11:28:59;0.43;;;0.20;;
53710;SDS011;39605;52.704;6.752;2023-04-10T11:31:26;0.00;;;0.00;;
53710;SDS011;39605;52.704;6.752;2023-04-10T11:36:24;0.00;;;0.00;;
53710;SDS011;39605;52.704;6.752;2023-04-10T11:41:48;0.25;;;0.25;;
53710;SDS011;39605;52.704;6.752;2023-04-10T11:46:51;0.00;;;0.00;;
53710;SDS011;39605;52.704;6.752;2023-04-10T11:49:18;1.25;;;0.25;;
53710;SDS011;39605;52.704;6.752;2023-04-10T11:51:48;0.35;;;0.35;;
53710;SDS011;39605;52.704;6.752;2023-04-10T11:56:53;0.82;;;0.43;;
53710;SDS011;39605;52.704;6.752;2023-04-10T11:59:24;0.13;;;0.10;;
53710;SDS011;39605;52.704;6.752;2023-04-10T12:01:50;0.00;;;0.00;;
53710;SDS011;39605;52.704;6.752;2023-04-10T12:04:20;0.35;;;0.20;;
53710;SDS011;39605;52.704;6.752;2023-04-10T12:06:51;1.05;;;0.20;;
53710;SDS011;39605;52.704;6.752;2023-04-10T12:09:20;0.63;;;0.28;;
53710;SDS011;39605;52.704;6.752;2023-04-10T12:11:50;0.00;;;0.00;;
53710;SDS011;39605;52.704;6.752;2023-04-10T12:14:17;3.25;;;1.55;;
53710;SDS011;39605;52.704;6.752;2023-04-10T12:16:45;0.00;;;0.00;;
53710;SDS011;39605;52.704;6.752;2023-04-10T12:19:11;1.30;;;0.30;;
53710;SDS011;39605;52.704;6.752;2023-04-10T12:21:38;0.15;;;0.10;;
53710;SDS011;39605;52.704;6.752;2023-04-10T12:24:07;0.10;;;0.10;;
53710;SDS011;39605;52.704;6.752;2023-04-10T12:26:32;0.00;;;0.00;;
53710;SDS011;39605;52.704;6.752;2023-04-10T12:28:58;0.03;;;0.03;;
53710;SDS011;39605;52.704;6.752;2023-04-10T12:31:34;0.00;;;0.00;;
53710;SDS011;39605;52.704;6.752;2023-04-10T12:34:01;0.00;;;0.00;;
53710;SDS011;39605;52.704;6.752;2023-04-10T12:36:29;0.08;;;0.08;;
53710;SDS011;39605;52.704;6.752;2023-04-10T12:38:59;0.13;;;0.10;;
53710;SDS011;39605;52.704;6.752;2023-04-10T12:41:32;0.10;;;0.10;;
53710;SDS011;39605;52.704;6.752;2023-04-10T12:44:06;0.10;;;0.10;;
53710;SDS011;39605;52.704;6.752;2023-04-10T12:46:36;0.05;;;0.05;;
53710;SDS011;39605;52.704;6.752;2023-04-10T12:49:10;0.73;;;0.32;;
53710;SDS011;39605;52.704;6.752;2023-04-10T12:51:55;0.08;;;0.08;;
53710;SDS011;39605;52.704;6.752;2023-04-10T12:54:30;0.00;;;0.00;;
53710;SDS011;39605;52.704;6.752;2023-04-10T12:57:00;0.00;;;0.00;;
53710;SDS011;39605;52.704;6.752;2023-04-10T12:59:31;0.10;;;0.00;;
53710;SDS011;39605;52.704;6.752;2023-04-10T13:01:57;0.13;;;0.13;;
53710;SDS011;39605;52.704;6.752;2023-04-10T13:04:23;0.00;;;0.00;;
53710;SDS011;39605;52.704;6.752;2023-04-10T13:06:49;4.55;;;0.80;;
53710;SDS011;39605;52.704;6.752;2023-04-10T13:09:17;0.00;;;0.00;;
53710;SDS011;39605;52.704;6.752;2023-04-10T13:11:43;0.20;;;0.10;;
53710;SDS011;39605;52.704;6.752;2023-04-10T13:14:08;0.00;;;0.00;;
53710;SDS011;39605;52.704;6.752;2023-04-10T13:16:35;0.10;;;0.00;;
53710;SDS011;39605;52.704;6.752;2023-04-10T13:19:01;0.10;;;0.00;;
53710;SDS011;39605;52.704;6.752;2023-04-10T13:21:30;1.45;;;0.30;;
53710;SDS011;39605;52.704;6.752;2023-04-10T13:23:56;0.00;;;0.00;;
53710;SDS011;39605;52.704;6.752;2023-04-10T13:26:22;0.00;;;0.00;;
53710;SDS011;39605;52.704;6.752;2023-04-10T13:28:48;0.08;;;0.08;;
53710;SDS011;39605;52.704;6.752;2023-04-10T13:31:14;1.55;;;0.60;;
53710;SDS011;39605;52.704;6.752;2023-04-10T13:33:40;0.20;;;0.20;;
53710;SDS011;39605;52.704;6.752;2023-04-10T13:36:11;0.00;;;0.00;;
53710;SDS011;39605;52.704;6.752;2023-04-10T13:38:38;0.00;;;0.00;;
53710;SDS011;39605;52.704;6.752;2023-04-10T13:41:04;0.20;;;0.15;;
53710;SDS011;39605;52.704;6.752;2023-04-10T13:43:29;0.55;;;0.10;;
53710;SDS011;39605;52.704;6.752;2023-04-10T13:45:55;0.30;;;0.30;;
53710;SDS011;39605;52.704;6.752;2023-04-10T13:48:21;0.00;;;0.00;;
53710;SDS011;39605;52.704;6.752;2023-04-10T13:50:46;0.15;;;0.08;;
53710;SDS011;39605;52.704;6.752;2023-04-10T13:53:12;0.00;;;0.00;;
53710;SDS011;39605;52.704;6.752;2023-04-10T13:55:38;0.00;;;0.00;;
53710;SDS011;39605;52.704;6.752;2023-04-10T13:58:07;0.00;;;0.00;;
53710;SDS011;39605;52.704;6.752;2023-04-10T14:00:36;0.20;;;0.20;;
53710;SDS011;39605;52.704;6.752;2023-04-10T14:03:01;0.08;;;0.08;;
53710;SDS011;39605;52.704;6.752;2023-04-10T14:05:27;0.43;;;0.20;;
53710;SDS011;39605;52.704;6.752;2023-04-10T14:07:53;0.10;;;0.00;;
53710;SDS011;39605;52.704;6.752;2023-04-10T14:10:21;0.00;;;0.00;;
53710;SDS011;39605;52.704;6.752;2023-04-10T14:12:48;3.03;;;0.30;;
53710;SDS011;39605;52.704;6.752;2023-04-10T14:15:15;0.17;;;0.17;;
53710;SDS011;39605;52.704;6.752;2023-04-10T14:17:40;0.00;;;0.00;;
53710;SDS011;39605;52.704;6.752;2023-04-10T14:20:06;0.00;;;0.00;;
53710;SDS011;39605;52.704;6.752;2023-04-10T14:22:35;0.00;;;0.00;;
53710;SDS011;39605;52.704;6.752;2023-04-10T14:25:01;0.47;;;0.10;;
53710;SDS011;39605;52.704;6.752;2023-04-10T14:27:26;0.08;;;0.00;;
53710;SDS011;39605;52.704;6.752;2023-04-10T14:29:52;0.00;;;0.00;;
53710;SDS011;39605;52.704;6.752;2023-04-10T14:32:19;0.00;;;0.00;;
53710;SDS011;39605;52.704;6.752;2023-04-10T14:34:45;0.00;;;0.00;;
53710;SDS011;39605;52.704;6.752;2023-04-10T14:37:10;1.17;;;0.43;;
53710;SDS011;39605;52.704;6.752;2023-04-10T14:39:36;0.00;;;0.00;;
53710;SDS011;39605;52.704;6.752;2023-04-10T14:42:02;0.10;;;0.05;;
53710;SDS011;39605;52.704;6.752;2023-04-10T14:44:28;0.00;;;0.00;;
53710;SDS011;39605;52.704;6.752;2023-04-10T14:46:54;0.65;;;0.20;;
53710;SDS011;39605;52.704;6.752;2023-04-10T14:49:22;0.00;;;0.00;;
53710;SDS011;39605;52.704;6.752;2023-04-10T14:51:48;1.27;;;0.30;;
53710;SDS011;39605;52.704;6.752;2023-04-10T14:54:14;0.47;;;0.47;;
53710;SDS011;39605;52.704;6.752;2023-04-10T14:56:48;0.00;;;0.00;;
53710;SDS011;39605;52.704;6.752;2023-04-10T14:59:14;2.92;;;0.43;;
53710;SDS011;39605;52.704;6.752;2023-04-10T15:01:40;0.10;;;0.00;;
53710;SDS011;39605;52.704;6.752;2023-04-10T15:04:06;0.00;;;0.00;;
53710;SDS011;39605;52.704;6.752;2023-04-10T15:06:32;0.20;;;0.20;;
53710;SDS011;39605;52.704;6.752;2023-04-10T15:08:58;0.00;;;0.00;;
53710;SDS011;39605;52.704;6.752;2023-04-10T15:11:24;0.10;;;0.10;;
53710;SDS011;39605;52.704;6.752;2023-04-10T15:13:50;0.10;;;0.10;;
53710;SDS011;39605;52.704;6.752;2023-04-10T15:16:16;0.00;;;0.00;;
53710;SDS011;39605;52.704;6.752;2023-04-10T15:18:42;0.57;;;0.47;;
53710;SDS011;39605;52.704;6.752;2023-04-10T15:21:10;0.22;;;0.22;;
53710;SDS011;39605;52.704;6.752;2023-04-10T15:23:36;0.17;;;0.17;;
53710;SDS011;39605;52.704;6.752;2023-04-10T15:26:01;0.10;;;0.10;;
53710;SDS011;39605;52.704;6.752;2023-04-10T15:28:27;0.00;;;0.00;;
53710;SDS011;39605;52.704;6.752;2023-04-10T15:30:53;0.20;;;0.20;;
53710;SDS011;39605;52.704;6.752;2023-04-10T15:33:19;1.00;;;0.38;;
53710;SDS011;39605;52.704;6.752;2023-04-10T15:35:49;0.13;;;0.00;;
53710;SDS011;39605;52.704;6.752;2023-04-10T15:38:14;0.00;;;0.00;;